Time;durP1;ratioP1;P1;durP2;ratioP2;P2;SDS_P1;SDS_P2;PMS_P1;PMS_P2;Temp;Humidity;BMP_temperature;BMP_pressure;BME280_temperature;BME280_humidity;BME280_pressure;Samples;Min_cycle;Max_cycle;Signal;HPM_P1;HPM_P2
2021/06/08 00:00:24;;;;;;;3.38;1.00;;;;;15.40;101200.00;;;;5048536;28;20029;-71
2021/06/08 00:02:51;;;;;;;5.32;1.00;;;;;15.40;101207.00;;;;5048694;28;20037;-70
2021/06/08 00:05:18;;;;;;;4.05;1.10;;;;;15.30;101200.00;;;;5047061;28;20060;-68
2021/06/08 00:07:46;;;;;;;2.80;0.90;;;;;15.40;101205.00;;;;5048275;28;20087;-71
2021/06/08 00:10:13;;;;;;;2.63;0.82;;;;;15.40;101199.00;;;;5047149;28;20160;-70
2021/06/08 00:12:40;;;;;;;6.38;1.00;;;;;15.40;101198.00;;;;5048211;28;20132;-70
2021/06/08 00:15:08;;;;;;;2.47;0.90;;;;;15.30;101198.00;;;;5047544;28;20510;-71
2021/06/08 00:17:34;;;;;;;3.90;1.05;;;;;15.30;101206.00;;;;5047365;28;20021;-71
2021/06/08 00:20:01;;;;;;;4.20;0.85;;;;;15.30;101209.00;;;;5047068;28;20075;-69
2021/06/08 00:22:30;;;;;;;2.00;0.85;;;;;15.40;101222.00;;;;5047789;28;20151;-70
2021/06/08 00:24:57;;;;;;;2.08;1.13;;;;;15.40;101217.00;;;;5047611;28;20516;-68
2021/06/08 00:27:24;;;;;;;3.67;1.65;;;;;15.40;101211.00;;;;5047805;28;20432;-71
2021/06/08 00:29:50;;;;;;;3.45;1.55;;;;;15.30;101220.00;;;;5047023;28;20370;-68
2021/06/08 00:32:17;;;;;;;4.78;2.00;;;;;15.30;101202.00;;;;5047482;28;20499;-69
2021/06/08 00:34:43;;;;;;;2.60;1.20;;;;;15.40;101204.00;;;;5040949;28;20098;-68
2021/06/08 00:37:10;;;;;;;5.90;1.30;;;;;15.30;101215.00;;;;5037226;28;20021;-67
2021/06/08 00:39:37;;;;;;;2.55;1.30;;;;;15.40;101219.00;;;;5036118;28;20550;-72
2021/06/08 00:42:03;;;;;;;1.73;1.10;;;;;15.40;101207.00;;;;5042203;28;20112;-69
2021/06/08 00:44:30;;;;;;;3.08;0.80;;;;;15.30;101203.00;;;;5047948;28;20025;-70
2021/06/08 00:46:57;;;;;;;2.83;0.70;;;;;15.30;101210.00;;;;5047751;28;20456;-68
2021/06/08 00:49:24;;;;;;;4.35;0.80;;;;;15.30;101225.00;;;;5047885;28;20111;-71
2021/06/08 00:51:51;;;;;;;2.55;0.80;;;;;15.30;101215.00;;;;5047799;28;20558;-72
2021/06/08 00:54:17;;;;;;;2.47;0.70;;;;;15.30;101202.00;;;;5047819;28;20479;-69
2021/06/08 00:56:45;;;;;;;3.85;0.80;;;;;15.40;101219.00;;;;5047598;28;20071;-70
2021/06/08 00:59:13;;;;;;;1.83;0.52;;;;;15.40;101209.00;;;;5046746;28;20025;-70
2021/06/08 01:01:40;;;;;;;1.90;0.55;;;;;15.40;101227.00;;;;5047164;28;20037;-70
2021/06/08 01:04:10;;;;;;;2.75;0.65;;;;;15.40;101239.00;;;;5047914;28;20202;-67
2021/06/08 01:06:38;;;;;;;2.78;0.90;;;;;15.40;101226.00;;;;5047893;28;20079;-72
2021/06/08 01:09:06;;;;;;;5.22;1.27;;;;;15.40;101227.00;;;;5046865;28;20037;-70
2021/06/08 01:11:34;;;;;;;5.40;1.35;;;;;15.40;101232.00;;;;5047315;28;20024;-69
2021/06/08 01:14:01;;;;;;;2.28;1.13;;;;;15.40;101230.00;;;;5046962;28;20574;-71
2021/06/08 01:16:29;;;;;;;1.58;0.65;;;;;15.40;101222.00;;;;5047527;28;20078;-71
2021/06/08 01:18:56;;;;;;;3.10;0.90;;;;;15.30;101223.00;;;;5046638;28;20041;-71
2021/06/08 01:21:23;;;;;;;1.88;0.60;;;;;15.40;101227.00;;;;5047164;28;20020;-72
2021/06/08 01:23:50;;;;;;;2.00;0.70;;;;;15.40;101215.00;;;;5047209;28;20021;-69
2021/06/08 01:26:17;;;;;;;2.78;0.65;;;;;15.40;101228.00;;;;5046323;28;20128;-69
2021/06/08 01:28:46;;;;;;;0.90;0.65;;;;;15.40;101216.00;;;;5047466;28;20040;-72
2021/06/08 01:31:15;;;;;;;1.75;0.70;;;;;15.40;101214.00;;;;5047141;28;20111;-70
2021/06/08 01:33:44;;;;;;;1.25;0.60;;;;;15.40;101213.00;;;;5047127;28;20033;-70
2021/06/08 01:36:19;;;;;;;1.05;0.68;;;;;15.40;101213.00;;;;5046961;28;20041;-71
2021/06/08 01:38:49;;;;;;;1.05;0.80;;;;;15.40;101206.00;;;;5046889;28;20033;-69
2021/06/08 01:41:20;;;;;;;1.80;0.65;;;;;15.40;101203.00;;;;5046934;28;20029;-72
2021/06/08 01:43:46;;;;;;;2.47;0.65;;;;;15.40;101208.00;;;;5046975;28;20039;-70
2021/06/08 01:46:16;;;;;;;1.77;0.80;;;;;15.40;101201.00;;;;5046635;28;20036;-68
2021/06/08 01:48:43;;;;;;;4.28;2.35;;;;;15.40;101203.00;;;;5046960;28;20029;-71
2021/06/08 01:51:21;;;;;;;1.85;0.60;;;;;15.40;101217.00;;;;5047193;28;20036;-67
2021/06/08 01:54:24;;;;;;;2.33;0.50;;;;;15.40;101222.00;;;;5047136;28;20035;-69
2021/06/08 01:57:21;;;;;;;5.13;0.80;;;;;15.40;101203.00;;;;5046827;28;20056;-67
2021/06/08 01:59:55;;;;;;;1.30;0.68;;;;;15.40;101198.00;;;;5046520;28;20029;-70
2021/06/08 02:02:50;;;;;;;0.77;0.30;;;;;15.40;101190.00;;;;5046596;28;20523;-69
2021/06/08 02:05:31;;;;;;;1.52;0.60;;;;;15.40;101218.00;;;;5046697;28;20017;-68
2021/06/08 02:08:16;;;;;;;3.28;0.60;;;;;15.40;101216.00;;;;5046562;28;20029;-70
2021/06/08 02:10:54;;;;;;;2.08;0.80;;;;;15.40;101210.00;;;;5046363;28;20554;-70
2021/06/08 02:13:53;;;;;;;1.70;0.75;;;;;15.40;101202.00;;;;5046842;28;20043;-69
2021/06/08 02:16:28;;;;;;;2.67;2.05;;;;;15.40;101198.00;;;;5046699;28;20032;-69
2021/06/08 02:18:55;;;;;;;2.45;0.80;;;;;15.40;101201.00;;;;5046451;28;20406;-67
2021/06/08 02:21:35;;;;;;;0.70;0.65;;;;;15.40;101214.00;;;;5046160;28;20116;-70
2021/06/08 02:24:03;;;;;;;0.95;0.68;;;;;15.40;101208.00;;;;5046888;28;20430;-70
2021/06/08 02:26:34;;;;;;;2.88;0.75;;;;;15.40;101206.00;;;;5046399;28;20033;-70
2021/06/08 02:29:02;;;;;;;2.78;0.68;;;;;15.40;101192.00;;;;5046414;28;20080;-69
2021/06/08 02:31:29;;;;;;;1.75;0.60;;;;;15.30;101185.00;;;;5046524;28;20029;-69
2021/06/08 02:33:56;;;;;;;2.88;0.47;;;;;15.30;101195.00;;;;5046245;28;20017;-68
2021/06/08 02:36:23;;;;;;;1.45;0.50;;;;;15.30;101200.00;;;;5047011;28;20108;-70
2021/06/08 02:38:50;;;;;;;1.85;0.50;;;;;15.30;101185.00;;;;5048616;28;20024;-71
2021/06/08 02:41:17;;;;;;;1.83;0.50;;;;;15.30;101183.00;;;;5049776;28;20060;-72
2021/06/08 02:43:45;;;;;;;5.82;2.17;;;;;15.30;101164.00;;;;5050922;28;20033;-70
2021/06/08 02:46:12;;;;;;;1.92;0.50;;;;;15.30;101174.00;;;;5050169;28;20029;-71
2021/06/08 02:48:40;;;;;;;2.78;0.55;;;;;15.30;101179.00;;;;5049913;28;20035;-68
2021/06/08 02:51:07;;;;;;;3.10;0.50;;;;;15.30;101173.00;;;;5049923;28;20059;-70
2021/06/08 02:53:35;;;;;;;0.95;0.60;;;;;15.30;101167.00;;;;5049875;28;20107;-69
2021/06/08 02:56:02;;;;;;;0.82;0.47;;;;;15.30;101157.00;;;;5049930;28;20044;-68
2021/06/08 02:58:30;;;;;;;1.70;0.50;;;;;15.20;101164.00;;;;5050688;28;20032;-68
2021/06/08 03:00:57;;;;;;;2.17;0.50;;;;;15.20;101174.00;;;;5050404;28;20036;-70
2021/06/08 03:03:36;;;;;;;2.40;0.70;;;;;15.20;101160.00;;;;5049810;28;20104;-71
2021/06/08 03:06:13;;;;;;;2.28;0.50;;;;;15.20;101157.00;;;;5049714;28;20029;-71
2021/06/08 03:08:55;;;;;;;1.80;0.60;;;;;15.20;101164.00;;;;5047837;28;20068;-67
2021/06/08 03:11:28;;;;;;;1.67;0.60;;;;;15.20;101164.00;;;;5049812;28;20036;-71
2021/06/08 03:13:56;;;;;;;0.98;0.60;;;;;15.10;101156.00;;;;5049280;28;20028;-68
2021/06/08 03:16:27;;;;;;;1.13;0.57;;;;;15.10;101152.00;;;;5049756;28;20085;-68
2021/06/08 03:18:58;;;;;;;3.95;0.85;;;;;15.10;101150.00;;;;5049395;28;20040;-71
2021/06/08 03:21:30;;;;;;;3.10;0.80;;;;;15.10;101167.00;;;;5050320;28;20507;-72
2021/06/08 03:24:01;;;;;;;2.85;0.88;;;;;15.00;101159.00;;;;5049650;28;20040;-69
2021/06/08 03:26:31;;;;;;;1.43;0.60;;;;;15.00;101164.00;;;;5049050;28;20071;-72
2021/06/08 03:29:00;;;;;;;1.48;0.55;;;;;15.00;101161.00;;;;5049721;28;20123;-72
2021/06/08 03:31:27;;;;;;;1.42;0.50;;;;;14.90;101163.00;;;;5049246;28;20029;-71
2021/06/08 03:33:56;;;;;;;1.27;0.50;;;;;14.90;101150.00;;;;5049809;28;20159;-71
2021/06/08 03:36:26;;;;;;;1.02;0.60;;;;;15.10;101165.00;;;;5049378;28;20021;-68
2021/06/08 03:38:53;;;;;;;4.25;0.70;;;;;14.90;101155.00;;;;5049086;28;20028;-71
2021/06/08 03:41:22;;;;;;;0.95;0.60;;;;;14.80;101161.00;;;;5048881;28;20071;-67
2021/06/08 03:43:50;;;;;;;2.67;0.90;;;;;14.70;101142.00;;;;5049097;28;20338;-69
2021/06/08 03:46:17;;;;;;;2.50;0.75;;;;;14.60;101165.00;;;;5049424;28;20060;-72
2021/06/08 03:48:44;;;;;;;2.35;0.75;;;;;14.50;101148.00;;;;5049236;28;20107;-71
2021/06/08 03:51:11;;;;;;;1.95;0.60;;;;;14.60;101150.00;;;;5048152;28;20414;-68
2021/06/08 03:53:41;;;;;;;5.57;1.00;;;;;14.60;101131.00;;;;5048897;28;20041;-68
2021/06/08 03:56:11;;;;;;;1.35;0.68;;;;;14.60;101130.00;;;;5048889;28;20533;-70
2021/06/08 03:58:40;;;;;;;1.70;0.75;;;;;14.60;101128.00;;;;5048975;28;20496;-71
2021/06/08 04:01:07;;;;;;;1.83;0.60;;;;;14.60;101124.00;;;;5048898;28;20037;-71
2021/06/08 04:03:35;;;;;;;2.53;0.68;;;;;14.60;101113.00;;;;5048905;28;20032;-70
2021/06/08 04:06:02;;;;;;;2.03;0.80;;;;;14.50;101104.00;;;;5047351;28;20060;-71
2021/06/08 04:08:29;;;;;;;3.50;0.80;;;;;14.40;101112.00;;;;5049234;28;20056;-71
2021/06/08 04:10:57;;;;;;;2.58;0.80;;;;;14.30;101107.00;;;;5048591;28;20140;-69
2021/06/08 04:13:24;;;;;;;4.93;0.60;;;;;14.40;101111.00;;;;5048472;28;20500;-69
2021/06/08 04:15:51;;;;;;;2.88;0.75;;;;;14.30;101126.00;;;;5048866;28;20120;-70
2021/06/08 04:18:20;;;;;;;4.38;0.88;;;;;14.30;101105.00;;;;5048746;28;20028;-70
2021/06/08 04:20:48;;;;;;;2.67;0.60;;;;;14.20;101107.00;;;;5048717;28;20025;-71
2021/06/08 04:23:15;;;;;;;1.85;0.50;;;;;14.10;101105.00;;;;5046926;28;20514;-69
2021/06/08 04:25:44;;;;;;;0.80;0.52;;;;;14.00;101108.00;;;;5048229;28;20116;-70
2021/06/08 04:28:11;;;;;;;1.45;0.60;;;;;13.90;101105.00;;;;5048353;28;20114;-68
2021/06/08 04:30:38;;;;;;;2.53;0.60;;;;;13.80;101109.00;;;;5048518;28;20048;-67
2021/06/08 04:33:05;;;;;;;1.23;0.40;;;;;13.70;101110.00;;;;5048512;28;20067;-67
2021/06/08 04:35:32;;;;;;;3.00;0.68;;;;;13.60;101104.00;;;;5048046;28;20029;-70
2021/06/08 04:37:59;;;;;;;1.23;0.70;;;;;13.60;101101.00;;;;5047889;28;20017;-71
2021/06/08 04:40:27;;;;;;;3.60;0.80;;;;;13.60;101109.00;;;;5048075;28;20492;-71
2021/06/08 04:42:54;;;;;;;4.93;0.90;;;;;13.60;101112.00;;;;5047779;28;20036;-72
2021/06/08 04:45:21;;;;;;;3.30;0.60;;;;;13.60;101105.00;;;;5047476;28;20590;-67
2021/06/08 04:47:48;;;;;;;2.10;0.50;;;;;13.50;101093.00;;;;5047826;28;20021;-72
2021/06/08 04:50:15;;;;;;;4.60;0.70;;;;;13.50;101099.00;;;;5047721;28;20055;-69
2021/06/08 04:52:42;;;;;;;8.25;0.80;;;;;13.40;101091.00;;;;5047822;28;20033;-70
2021/06/08 04:55:12;;;;;;;5.50;0.60;;;;;13.30;101077.00;;;;5046773;28;20599;-70
2021/06/08 04:57:39;;;;;;;3.92;0.80;;;;;13.30;101071.00;;;;5047668;28;20025;-67
2021/06/08 05:00:10;;;;;;;4.20;0.90;;;;;13.30;101078.00;;;;5047909;28;20025;-67
2021/06/08 05:03:04;;;;;;;3.10;0.90;;;;;13.20;101095.00;;;;5047461;28;20029;-71
2021/06/08 05:05:32;;;;;;;2.95;0.90;;;;;13.20;101088.00;;;;5047901;28;20044;-69
2021/06/08 05:08:06;;;;;;;1.42;0.82;;;;;13.10;101079.00;;;;5047514;28;20064;-69
2021/06/08 05:10:36;;;;;;;3.97;0.70;;;;;13.10;101081.00;;;;5047546;28;20487;-69
2021/06/08 05:13:05;;;;;;;6.82;0.90;;;;;13.00;101067.00;;;;5047897;28;20029;-68
2021/06/08 05:15:33;;;;;;;7.57;0.80;;;;;13.00;101064.00;;;;5047227;28;20029;-71
2021/06/08 05:18:00;;;;;;;4.93;0.80;;;;;13.00;101071.00;;;;5048157;28;20037;-69
2021/06/08 05:20:27;;;;;;;4.70;0.50;;;;;13.00;101072.00;;;;5047451;28;20025;-70
2021/06/08 05:22:55;;;;;;;6.60;0.60;;;;;13.00;101049.00;;;;5047287;28;20091;-69
2021/06/08 05:25:23;;;;;;;8.50;0.77;;;;;13.10;101067.00;;;;5046921;28;20043;-72
2021/06/08 05:27:50;;;;;;;6.38;0.38;;;;;13.00;101057.00;;;;5046857;28;20114;-68
2021/06/08 05:30:17;;;;;;;5.85;0.68;;;;;12.90;101049.00;;;;5046005;28;20040;-69
2021/06/08 05:32:45;;;;;;;3.15;0.28;;;;;13.00;101054.00;;;;5047477;28;20029;-72
2021/06/08 05:35:12;;;;;;;3.53;0.50;;;;;13.00;101050.00;;;;5047045;28;20033;-71
2021/06/08 05:37:42;;;;;;;3.15;0.50;;;;;12.90;101051.00;;;;5046897;28;20028;-69
2021/06/08 05:40:10;;;;;;;0.82;0.50;;;;;12.90;101061.00;;;;5047054;28;20418;-69
2021/06/08 05:42:37;;;;;;;2.45;0.50;;;;;13.00;101052.00;;;;5046895;28;20397;-71
2021/06/08 05:45:05;;;;;;;4.97;0.50;;;;;13.00;101045.00;;;;5047278;28;20023;-70
2021/06/08 05:47:32;;;;;;;7.07;0.57;;;;;13.00;101045.00;;;;5047062;28;20103;-72
2021/06/08 05:49:58;;;;;;;1.45;0.30;;;;;13.10;101050.00;;;;5046816;28;20033;-69
2021/06/08 05:52:25;;;;;;;0.68;0.30;;;;;13.00;101042.00;;;;5046644;28;20390;-67
2021/06/08 05:54:53;;;;;;;1.33;0.45;;;;;13.00;101031.00;;;;5047021;28;20036;-72
2021/06/08 05:57:22;;;;;;;1.83;0.40;;;;;13.00;101045.00;;;;5047343;28;20061;-69
2021/06/08 05:59:49;;;;;;;4.82;0.50;;;;;13.00;101033.00;;;;5046884;28;20496;-71
2021/06/08 06:02:17;;;;;;;1.92;0.70;;;;;13.00;101044.00;;;;5030606;28;20033;-70
2021/06/08 06:04:46;;;;;;;0.82;0.47;;;;;13.00;101042.00;;;;5034214;28;20021;-69
2021/06/08 06:07:14;;;;;;;2.10;0.40;;;;;13.00;101027.00;;;;5046087;28;20045;-69
2021/06/08 06:09:41;;;;;;;5.85;0.40;;;;;13.00;101031.00;;;;5045871;28;20057;-72
2021/06/08 06:12:08;;;;;;;1.42;0.35;;;;;13.00;101034.00;;;;5046720;28;20504;-67
2021/06/08 06:14:36;;;;;;;2.53;0.50;;;;;13.00;101037.00;;;;5046062;28;20029;-71
2021/06/08 06:17:03;;;;;;;3.65;0.40;;;;;13.10;101035.00;;;;5046920;28;20064;-70
2021/06/08 06:19:30;;;;;;;1.65;0.30;;;;;13.10;101035.00;;;;5046935;28;20037;-70
2021/06/08 06:21:58;;;;;;;4.22;0.50;;;;;13.00;101017.00;;;;5046697;28;20054;-71
2021/06/08 06:24:27;;;;;;;4.07;0.50;;;;;13.10;101033.00;;;;5046000;28;20074;-70
2021/06/08 06:26:55;;;;;;;0.20;0.20;;;;;13.10;101028.00;;;;5046731;28;20124;-71
2021/06/08 06:29:23;;;;;;;2.08;0.60;;;;;13.20;101018.00;;;;5046493;28;20033;-68
2021/06/08 06:31:50;;;;;;;3.60;0.50;;;;;13.30;101006.00;;;;5046307;28;20028;-67
2021/06/08 06:34:18;;;;;;;0.88;0.43;;;;;13.40;101021.00;;;;5045242;28;20078;-69
2021/06/08 06:36:49;;;;;;;2.38;0.45;;;;;13.50;101013.00;;;;5045994;28;20411;-67
2021/06/08 06:39:22;;;;;;;1.00;0.30;;;;;13.40;101015.00;;;;5046609;28;20040;-71
2021/06/08 06:41:51;;;;;;;1.40;0.28;;;;;13.40;101012.00;;;;5046156;28;20021;-72
2021/06/08 06:44:23;;;;;;;5.10;0.50;;;;;13.30;101006.00;;;;5046403;28;20488;-69
2021/06/08 06:46:52;;;;;;;3.22;0.40;;;;;13.30;101022.00;;;;5046543;28;20155;-70
2021/06/08 06:49:19;;;;;;;3.30;0.63;;;;;13.20;101004.00;;;;5045740;28;20091;-70
2021/06/08 06:51:47;;;;;;;0.68;0.30;;;;;13.10;100998.00;;;;5046001;28;20029;-71
2021/06/08 06:54:15;;;;;;;5.35;0.43;;;;;13.10;100995.00;;;;5046317;28;20108;-71
2021/06/08 06:56:43;;;;;;;3.47;0.50;;;;;13.00;100993.00;;;;5046269;28;20369;-68
2021/06/08 06:59:10;;;;;;;3.92;0.47;;;;;13.10;101010.00;;;;5046145;28;20033;-68
2021/06/08 07:01:37;;;;;;;1.90;0.30;;;;;13.20;100996.00;;;;5046091;28;20037;-70
2021/06/08 07:04:05;;;;;;;2.92;0.68;;;;;13.30;100999.00;;;;5046232;28;20666;-70
2021/06/08 07:06:34;;;;;;;2.40;0.50;;;;;13.30;100999.00;;;;5045914;28;20438;-69
2021/06/08 07:09:01;;;;;;;2.58;0.38;;;;;13.30;100993.00;;;;5045474;28;20485;-69
2021/06/08 07:11:28;;;;;;;2.45;0.50;;;;;13.20;100985.00;;;;5046098;28;20077;-71
2021/06/08 07:13:57;;;;;;;3.95;0.80;;;;;13.20;100991.00;;;;5045575;28;20056;-72
2021/06/08 07:16:25;;;;;;;3.13;0.40;;;;;13.10;100983.00;;;;5045606;28;20408;-69
2021/06/08 07:18:51;;;;;;;5.85;0.75;;;;;13.10;100990.00;;;;5045832;28;20496;-71
2021/06/08 07:21:20;;;;;;;3.70;0.68;;;;;13.10;100999.00;;;;5046163;28;20168;-71
2021/06/08 07:23:49;;;;;;;5.47;0.77;;;;;13.20;100984.00;;;;5046177;28;20108;-71
2021/06/08 07:26:18;;;;;;;2.67;0.40;;;;;13.10;101001.00;;;;5049089;28;20029;-71
2021/06/08 07:28:46;;;;;;;5.88;0.55;;;;;13.10;100988.00;;;;5049198;28;20036;-68
2021/06/08 07:31:20;;;;;;;1.95;0.35;;;;;13.10;101001.00;;;;5049556;28;20533;-71
2021/06/08 07:34:02;;;;;;;3.00;0.60;;;;;13.10;100989.00;;;;5049313;28;20035;-71
2021/06/08 07:36:48;;;;;;;2.05;0.55;;;;;13.20;100990.00;;;;5049560;28;20147;-68
2021/06/08 07:39:21;;;;;;;3.42;0.45;;;;;13.20;101010.00;;;;5049128;28;20031;-71
2021/06/08 07:42:11;;;;;;;5.25;0.40;;;;;13.40;100997.00;;;;5049287;28;20040;-70
2021/06/08 07:45:03;;;;;;;10.07;0.80;;;;;13.40;100984.00;;;;5049291;28;20032;-68
2021/06/08 07:47:33;;;;;;;;;;;;;13.40;101003.00;;;;5049690;28;20529;-70
2021/06/08 07:50:03;;;;;;;3.53;0.90;;;;;13.40;100995.00;;;;5049317;28;19959;-66
2021/06/08 07:52:30;;;;;;;4.20;0.80;;;;;13.40;100996.00;;;;5049202;28;20036;-69
2021/06/08 07:54:58;;;;;;;3.78;0.60;;;;;13.40;101007.00;;;;5049040;28;20388;-70
2021/06/08 07:57:24;;;;;;;5.10;0.50;;;;;13.40;101004.00;;;;5048963;28;20116;-69
2021/06/08 07:59:51;;;;;;;2.85;0.40;;;;;13.40;101003.00;;;;5048892;28;20029;-69
2021/06/08 08:02:20;;;;;;;1.92;0.40;;;;;13.40;101004.00;;;;5048485;28;20029;-71
2021/06/08 08:04:53;;;;;;;3.00;0.35;;;;;13.40;101015.00;;;;5048771;28;20048;-68
2021/06/08 08:07:25;;;;;;;5.03;0.70;;;;;13.40;101013.00;;;;5048782;28;20040;-70
2021/06/08 08:09:53;;;;;;;10.05;1.27;;;;;13.40;101008.00;;;;5048145;28;20064;-69
2021/06/08 08:12:22;;;;;;;2.75;0.60;;;;;13.50;100998.00;;;;5048316;28;20040;-70
2021/06/08 08:14:52;;;;;;;6.50;0.60;;;;;13.40;101005.00;;;;5048286;28;20033;-70
2021/06/08 08:17:26;;;;;;;6.05;0.70;;;;;13.40;100987.00;;;;5048879;28;20020;-67
2021/06/08 08:19:53;;;;;;;5.03;0.55;;;;;13.50;101010.00;;;;5048988;28;20136;-69
2021/06/08 08:22:20;;;;;;;3.13;0.73;;;;;13.50;101001.00;;;;5048117;28;20075;-68
2021/06/08 08:24:46;;;;;;;8.63;0.90;;;;;13.50;101012.00;;;;5048416;28;20033;-71
2021/06/08 08:27:14;;;;;;;6.22;0.98;;;;;13.50;101024.00;;;;5048544;28;20040;-72
2021/06/08 08:29:41;;;;;;;5.63;0.95;;;;;13.60;101013.00;;;;5048364;28;20495;-72
2021/06/08 08:32:08;;;;;;;3.90;0.52;;;;;13.60;101031.00;;;;5047972;28;20039;-71
2021/06/08 08:34:35;;;;;;;4.15;0.65;;;;;13.60;101016.00;;;;5048463;28;20854;-71
2021/06/08 08:37:02;;;;;;;8.32;0.90;;;;;13.60;101035.00;;;;5047327;28;20116;-68
2021/06/08 08:39:29;;;;;;;1.75;0.47;;;;;13.60;101044.00;;;;5048159;28;20060;-67
2021/06/08 08:41:55;;;;;;;6.35;1.25;;;;;13.60;101035.00;;;;5048330;28;20538;-70
2021/06/08 08:44:23;;;;;;;4.05;0.50;;;;;13.60;101051.00;;;;5048683;28;20108;-69
2021/06/08 08:46:49;;;;;;;3.28;0.73;;;;;13.70;101045.00;;;;5048128;28;20065;-69
2021/06/08 08:49:16;;;;;;;4.45;0.50;;;;;13.60;101047.00;;;;5047870;28;20067;-70
2021/06/08 08:51:43;;;;;;;3.45;0.50;;;;;13.60;101047.00;;;;5048026;28;20075;-70
2021/06/08 08:54:12;;;;;;;4.25;0.52;;;;;13.60;101057.00;;;;5047573;28;20446;-69
2021/06/08 08:56:41;;;;;;;11.88;2.67;;;;;13.60;101057.00;;;;5047903;28;20033;-69
2021/06/08 08:59:11;;;;;;;8.15;0.77;;;;;13.60;101058.00;;;;5048116;28;20067;-69
2021/06/08 09:01:40;;;;;;;17.50;1.33;;;;;13.70;101055.00;;;;5048195;28;20554;-68
2021/06/08 09:04:07;;;;;;;5.55;0.80;;;;;13.70;101053.00;;;;5047603;28;20387;-69
2021/06/08 09:06:36;;;;;;;4.55;0.70;;;;;13.70;101059.00;;;;5047759;28;20037;-71
2021/06/08 09:09:04;;;;;;;4.35;0.50;;;;;13.60;101070.00;;;;5047157;28;20442;-69
2021/06/08 09:11:32;;;;;;;3.78;0.80;;;;;13.70;101060.00;;;;5048220;28;20047;-68
2021/06/08 09:14:00;;;;;;;8.90;1.25;;;;;13.70;101081.00;;;;5047470;28;20513;-70
2021/06/08 09:16:27;;;;;;;11.07;1.33;;;;;13.70;101087.00;;;;5047624;28;20064;-67
2021/06/08 09:18:54;;;;;;;7.60;1.13;;;;;13.70;101090.00;;;;5047050;28;20043;-72
2021/06/08 09:21:27;;;;;;;4.32;1.10;;;;;13.70;101093.00;;;;5047319;28;20087;-72
2021/06/08 09:23:54;;;;;;;2.95;0.98;;;;;13.70;101086.00;;;;5047235;28;20121;-70
2021/06/08 09:26:20;;;;;;;10.15;1.20;;;;;13.70;101087.00;;;;5047659;28;20514;-72
2021/06/08 09:28:47;;;;;;;5.72;0.90;;;;;13.60;101100.00;;;;5047454;28;20594;-70
2021/06/08 09:31:20;;;;;;;3.90;0.85;;;;;13.70;101106.00;;;;5047292;28;20060;-71
2021/06/08 09:33:52;;;;;;;2.80;0.82;;;;;13.70;101120.00;;;;5046651;28;20029;-70
2021/06/08 09:36:28;;;;;;;8.05;1.17;;;;;13.70;101100.00;;;;5047115;28;20653;-70
2021/06/08 09:39:03;;;;;;;5.18;0.80;;;;;13.70;101108.00;;;;5046711;28;20032;-70
2021/06/08 09:41:37;;;;;;;4.05;0.77;;;;;13.60;101114.00;;;;5046849;28;20503;-69
2021/06/08 09:44:12;;;;;;;3.10;0.50;;;;;13.60;101111.00;;;;5047202;28;20170;-72
2021/06/08 09:46:45;;;;;;;6.25;0.70;;;;;13.60;101131.00;;;;5046977;28;20036;-70
2021/06/08 09:49:16;;;;;;;6.72;2.42;;;;;13.60;101134.00;;;;5045509;28;20028;-72
2021/06/08 09:52:06;;;;;;;6.07;1.10;;;;;13.70;101134.00;;;;5046839;28;20163;-72
2021/06/08 09:54:42;;;;;;;5.50;0.80;;;;;13.70;101141.00;;;;5046095;28;20101;-69
2021/06/08 09:57:23;;;;;;;10.13;0.80;;;;;13.70;101149.00;;;;5046505;28;20028;-69
2021/06/08 09:59:59;;;;;;;3.20;0.80;;;;;13.70;101146.00;;;;5046364;28;20099;-71
2021/06/08 10:02:50;;;;;;;4.65;1.17;;;;;13.70;101139.00;;;;5045528;28;20068;-68
2021/06/08 10:05:28;;;;;;;2.50;0.80;;;;;13.70;101141.00;;;;5046285;28;20064;-71
2021/06/08 10:08:00;;;;;;;4.85;0.75;;;;;13.70;101147.00;;;;5045887;28;20039;-70
2021/06/08 10:10:39;;;;;;;2.42;0.60;;;;;13.70;101139.00;;;;5045422;28;20041;-69
2021/06/08 10:13:15;;;;;;;2.95;0.57;;;;;13.70;101142.00;;;;5046155;28;20037;-69
2021/06/08 10:16:00;;;;;;;3.85;0.50;;;;;13.70;101153.00;;;;5045560;28;20036;-68
2021/06/08 10:18:44;;;;;;;2.10;0.45;;;;;13.80;101146.00;;;;5045715;28;20132;-72
2021/06/08 10:21:11;;;;;;;3.28;0.60;;;;;13.70;101153.00;;;;5045623;28;20535;-69
2021/06/08 10:23:38;;;;;;;0.98;0.60;;;;;13.70;101133.00;;;;5046140;28;20033;-69
2021/06/08 10:26:09;;;;;;;4.45;0.82;;;;;13.70;101153.00;;;;5045982;28;20396;-68
2021/06/08 10:28:37;;;;;;;10.35;0.90;;;;;13.80;101146.00;;;;5046760;28;20459;-68
2021/06/08 10:31:04;;;;;;;5.18;0.75;;;;;13.70;101150.00;;;;5046146;28;20166;-68
2021/06/08 10:33:32;;;;;;;14.38;1.10;;;;;13.70;101150.00;;;;5045572;28;20040;-70
2021/06/08 10:35:58;;;;;;;4.93;0.95;;;;;13.70;101140.00;;;;5046863;28;20032;-71
2021/06/08 10:38:26;;;;;;;7.90;3.60;;;;;13.80;101136.00;;;;5045830;28;20104;-71
2021/06/08 10:40:57;;;;;;;7.40;5.25;;;;;13.70;101149.00;;;;5046693;28;20021;-70
2021/06/08 10:43:29;;;;;;;7.50;5.73;;;;;13.80;101152.00;;;;5044947;28;20602;-69
2021/06/08 10:45:57;;;;;;;10.00;4.60;;;;;13.80;101149.00;;;;5046071;28;20037;-67
2021/06/08 10:48:38;;;;;;;10.50;4.90;;;;;13.80;101156.00;;;;5045815;28;20029;-68
2021/06/08 10:51:17;;;;;;;15.35;5.20;;;;;13.80;101151.00;;;;5045279;28;20130;-70
2021/06/08 10:53:58;;;;;;;15.35;5.43;;;;;13.90;101148.00;;;;5046501;28;20396;-69
2021/06/08 10:56:28;;;;;;;;;;;;;13.90;101150.00;;;;5046625;28;20041;-69
2021/06/08 10:58:59;;;;;;;8.75;2.35;;;;;14.00;101165.00;;;;5047341;28;20272;-71
2021/06/08 11:01:41;;;;;;;13.13;3.72;;;;;14.00;101148.00;;;;5049918;28;20428;-71
2021/06/08 11:04:20;;;;;;;5.63;3.65;;;;;14.00;101151.00;;;;5050089;28;20024;-69
2021/06/08 11:06:52;;;;;;;6.95;3.20;;;;;14.00;101152.00;;;;5050145;28;20040;-69
2021/06/08 11:09:24;;;;;;;5.32;2.83;;;;;14.10;101143.00;;;;5048582;28;20125;-70
2021/06/08 11:11:59;;;;;;;4.32;3.15;;;;;14.10;101137.00;;;;5049340;28;20045;-68
2021/06/08 11:14:42;;;;;;;9.15;3.92;;;;;14.10;101145.00;;;;5049800;28;20040;-72
2021/06/08 11:17:22;;;;;;;19.45;4.40;;;;;14.20;101147.00;;;;5049836;28;20025;-70
2021/06/08 11:19:53;;;;;;;8.57;1.27;;;;;14.20;101153.00;;;;5049856;28;20033;-71
2021/06/08 11:22:49;;;;;;;8.40;1.25;;;;;14.20;101151.00;;;;5049522;28;20033;-72
2021/06/08 11:25:28;;;;;;;11.25;2.70;;;;;14.30;101158.00;;;;5046038;28;20052;-70
2021/06/08 11:28:04;;;;;;;7.95;1.52;;;;;14.40;101153.00;;;;5049518;28;20379;-71
2021/06/08 11:30:31;;;;;;;19.75;2.33;;;;;14.40;101164.00;;;;5047258;28;20033;-72
2021/06/08 11:32:59;;;;;;;10.77;1.50;;;;;14.40;101154.00;;;;5049537;28;20487;-68
2021/06/08 11:35:41;;;;;;;7.35;1.30;;;;;14.50;101155.00;;;;5049669;28;20028;-69
2021/06/08 11:38:36;;;;;;;3.97;1.10;;;;;14.50;101160.00;;;;5049266;28;20028;-68
2021/06/08 11:41:08;;;;;;;8.15;1.60;;;;;14.50;101149.00;;;;5048055;28;20048;-69
2021/06/08 11:43:34;;;;;;;9.63;1.52;;;;;14.60;101160.00;;;;5049678;28;20029;-67
2021/06/08 11:46:30;;;;;;;4.45;1.60;;;;;14.70;101158.00;;;;5049442;28;20045;-70
2021/06/08 11:49:09;;;;;;;16.15;1.88;;;;;14.70;101152.00;;;;5042212;28;20040;-70
2021/06/08 11:52:04;;;;;;;23.40;2.40;;;;;14.80;101158.00;;;;5048752;28;20115;-69
2021/06/08 11:54:31;;;;;;;22.08;4.55;;;;;14.80;101157.00;;;;5049445;28;20075;-72
2021/06/08 11:57:06;;;;;;;19.77;3.10;;;;;14.90;101150.00;;;;5048285;28;20040;-71
2021/06/08 11:59:44;;;;;;;15.77;2.10;;;;;15.00;101163.00;;;;5048550;28;20045;-72
2021/06/08 12:02:32;;;;;;;32.42;3.47;;;;;15.00;101158.00;;;;5048977;28;20079;-67
2021/06/08 12:05:23;;;;;;;18.95;2.50;;;;;15.10;101154.00;;;;5048804;28;20036;-68
2021/06/08 12:07:52;;;;;;;4.45;1.67;;;;;15.20;101171.00;;;;5048787;28;20033;-69
2021/06/08 12:10:30;;;;;;;14.90;5.78;;;;;15.20;101173.00;;;;5047526;28;20468;-68
2021/06/08 12:12:57;;;;;;;5.68;1.70;;;;;15.20;101172.00;;;;5048590;28;20033;-70
2021/06/08 12:15:37;;;;;;;7.68;1.90;;;;;15.20;101167.00;;;;5048558;28;20147;-69
2021/06/08 12:18:16;;;;;;;14.00;3.10;;;;;15.30;101178.00;;;;5048406;28;20021;-71
2021/06/08 12:20:44;;;;;;;14.05;2.38;;;;;15.40;101185.00;;;;5048331;28;20063;-70
2021/06/08 12:23:24;;;;;;;7.88;2.00;;;;;15.40;101203.00;;;;5048331;28;20029;-71
2021/06/08 12:25:50;;;;;;;17.27;2.17;;;;;15.50;101204.00;;;;5048215;28;20108;-71